Skip Navigation

Christman Field Latest Observations

Switch to metric unitsOther observation timesWeekly graphs

Date Time
MST
Temp
°F
RH
%
DewPt
°F
Wind
mph
Dir
°
Gust
mph
Dir
°
Press
in Hg
Solar
W/m^2
Prec
in
2019-03-19 23:55 26.0 55.4 12.2 3.2 334 5.0 337 25.070 0.0 0.00
2019-03-19 23:50 24.1 57.1 11.1 1.8 287 3.6 287 25.065 0.0 0.00
2019-03-19 23:45 23.9 63.2 13.2 0.7 287 2.6 287 25.063 0.0 0.00
2019-03-19 23:40 25.5 58.1 12.8 1.2 273 3.1 260 25.064 0.0 0.00
2019-03-19 23:35 25.4 57.6 12.5 2.6 258 4.3 336 25.065 0.0 0.00
2019-03-19 23:30 26.3 58.7 13.8 0.4 280 1.9 280 25.059 0.0 0.00
2019-03-19 23:25 26.7 57.0 13.5 0.0 241 0.0 241 25.064 0.0 0.00
2019-03-19 23:20 26.5 52.5 11.5 0.2 241 1.1 241 25.067 0.0 0.00
2019-03-19 23:15 26.7 57.9 13.8 0.0 241 0.8 241 25.068 0.0 0.00
2019-03-19 23:10 24.7 59.0 12.4 1.7 187 3.2 181 25.067 0.0 0.00
2019-03-19 23:05 23.3 62.3 12.3 1.9 181 3.3 240 25.067 0.0 0.00
2019-03-19 23:00 24.6 62.9 13.8 1.2 249 3.1 254 25.063 0.0 0.00
2019-03-19 22:55 24.5 58.0 11.8 0.6 266 2.3 267 25.063 0.0 0.00
2019-03-19 22:50 24.1 58.7 11.8 0.2 265 1.1 265 25.066 0.0 0.00
2019-03-19 22:45 24.1 59.0 11.8 0.6 265 2.0 265 25.066 0.0 0.00
2019-03-19 22:40 23.4 58.8 11.1 2.2 265 3.4 280 25.066 0.0 0.00
2019-03-19 22:35 26.4 53.3 11.7 0.8 280 2.0 280 25.066 0.0 0.00
2019-03-19 22:30 29.4 49.3 12.7 1.5 289 4.2 127 25.066 0.0 0.00
2019-03-19 22:25 30.9 43.5 11.3 4.2 129 5.2 123 25.066 0.0 0.00
2019-03-19 22:20 30.6 42.6 10.5 3.3 122 5.0 121 25.067 0.0 0.00
2019-03-19 22:15 29.7 43.9 10.3 3.6 144 4.7 126 25.067 0.0 0.00
2019-03-19 22:10 29.2 44.4 10.2 1.3 136 3.1 134 25.066 0.0 0.00
2019-03-19 22:05 28.2 46.8 10.5 2.4 155 4.5 141 25.065 0.0 0.00
2019-03-19 22:00 30.7 46.0 12.4 3.7 146 6.2 141 25.062 0.1 0.00
2019-03-19 21:55 30.3 40.7 9.2 4.5 114 5.4 126 25.061 0.1 0.00
2019-03-19 21:50 28.2 46.0 10.0 4.1 133 5.8 136 25.061 0.1 0.00
2019-03-19 21:45 26.2 51.2 10.6 2.0 171 4.1 174 25.060 0.1 0.00
2019-03-19 21:40 25.8 53.9 11.4 4.1 198 5.0 203 25.058 0.2 0.00
2019-03-19 21:35 26.5 52.0 11.3 2.0 200 4.5 203 25.057 0.2 0.00
2019-03-19 21:30 25.8 51.8 10.5 1.6 239 2.6 239 25.053 0.2 0.00